PRIVATE WETTERSTATION BILLIGHEIM-ALLFELD                       ZURCK
Wetterdaten: Montag, 28.03.2022
Datum Zeit Temp. A. Temp. A. min Temp. A. max Feuchte A. Luftdruck Regen Wind Richtung Richtung Sonnenschein ET Solar Taupunkt Windchill Windben Empfang
28.03.2022 00:00 7,9 C 7,9 C 8,1 C 81 % 1025,8 hPa 0,0 l/m 0,0 km/h (0 Bft) N 360 0 min 0,025 mm 0 W/m 4,8 C 7,9 C 4,8 km/h (1 Bft) 100 %
28.03.2022 00:10 7,7 C 7,7 C 7,9 C 82 % 1025,6 hPa 0,0 l/m 0,0 km/h (0 Bft) N 360 0 min 0,000 mm 0 W/m 4,8 C 7,7 C 1,6 km/h (1 Bft) 100 %
28.03.2022 00:20 7,5 C 7,5 C 7,7 C 82 % 1025,6 hPa 0,0 l/m 0,0 km/h (0 Bft) N 360 0 min 0,000 mm 0 W/m 4,6 C 7,5 C 3,2 km/h (1 Bft) 100 %
28.03.2022 00:30 7,3 C 7,3 C 7,5 C 83 % 1025,6 hPa 0,0 l/m 0,0 km/h (0 Bft) N 360 0 min 0,000 mm 0 W/m 4,6 C 7,3 C 3,2 km/h (1 Bft) 100 %
28.03.2022 00:40 7,1 C 7,1 C 7,3 C 83 % 1025,6 hPa 0,0 l/m 0,0 km/h (0 Bft) N 0 0 min 0,000 mm 0 W/m 4,4 C 7,1 C 0,0 km/h (0 Bft) 100 %
28.03.2022 00:50 6,9 C 6,9 C 7,1 C 83 % 1025,5 hPa 0,0 l/m 0,0 km/h (0 Bft) N 360 0 min 0,000 mm 0 W/m 4,2 C 6,9 C 1,6 km/h (1 Bft) 100 %
28.03.2022 01:00 6,8 C 6,8 C 6,9 C 84 % 1025,5 hPa 0,0 l/m 0,0 km/h (0 Bft) N 360 0 min 0,000 mm 0 W/m 4,3 C 6,8 C 3,2 km/h (1 Bft) 100 %
28.03.2022 01:10 6,9 C 6,8 C 6,9 C 86 % 1025,5 hPa 0,0 l/m 0,0 km/h (0 Bft) N 0 0 min 0,000 mm 0 W/m 4,7 C 6,9 C 0,0 km/h (0 Bft) 100 %
28.03.2022 01:20 7,1 C 6,9 C 7,1 C 85 % 1025,4 hPa 0,0 l/m 0,0 km/h (0 Bft) N 0 0 min 0,000 mm 0 W/m 4,8 C 7,1 C 0,0 km/h (0 Bft) 100 %
28.03.2022 01:30 7,1 C 7,1 C 7,1 C 85 % 1025,4 hPa 0,0 l/m 0,0 km/h (0 Bft) N 0 0 min 0,000 mm 0 W/m 4,8 C 7,1 C 0,0 km/h (0 Bft) 97 %
28.03.2022 01:40 6,9 C 6,9 C 7,1 C 85 % 1025,3 hPa 0,0 l/m 0,0 km/h (0 Bft) N 0 0 min 0,000 mm 0 W/m 4,6 C 6,9 C 0,0 km/h (0 Bft) 93 %
28.03.2022 01:50 6,9 C 6,9 C 7,0 C 85 % 1025,3 hPa 0,0 l/m 0,0 km/h (0 Bft) N 0 0 min 0,000 mm 0 W/m 4,6 C 6,9 C 0,0 km/h (0 Bft) 100 %
28.03.2022 02:00 6,9 C 6,9 C 6,9 C 86 % 1025,2 hPa 0,0 l/m 0,0 km/h (0 Bft) N 0 0 min 0,000 mm 0 W/m 4,7 C 6,9 C 0,0 km/h (0 Bft) 100 %
28.03.2022 02:10 6,8 C 6,8 C 7,0 C 85 % 1025,1 hPa 0,0 l/m 0,0 km/h (0 Bft) N 0 0 min 0,000 mm 0 W/m 4,5 C 6,8 C 0,0 km/h (0 Bft) 99 %
28.03.2022 02:20 6,6 C 6,6 C 6,8 C 85 % 1025,0 hPa 0,0 l/m 0,0 km/h (0 Bft) N 0 0 min 0,000 mm 0 W/m 4,3 C 6,6 C 0,0 km/h (0 Bft) 100 %
28.03.2022 02:30 6,4 C 6,4 C 6,6 C 85 % 1024,9 hPa 0,0 l/m 0,0 km/h (0 Bft) N 0 0 min 0,000 mm 0 W/m 4,1 C 6,4 C 0,0 km/h (0 Bft) 100 %
28.03.2022 02:40 6,1 C 6,1 C 6,4 C 86 % 1024,9 hPa 0,0 l/m 0,0 km/h (0 Bft) N 0 0 min 0,000 mm 0 W/m 3,9 C 6,1 C 0,0 km/h (0 Bft) 100 %
28.03.2022 02:50 5,8 C 5,8 C 6,1 C 87 % 1024,8 hPa 0,0 l/m 0,0 km/h (0 Bft) N 0 0 min 0,000 mm 0 W/m 3,8 C 5,8 C 0,0 km/h (0 Bft) 100 %
28.03.2022 03:00 5,6 C 5,6 C 5,8 C 87 % 1024,7 hPa 0,0 l/m 0,0 km/h (0 Bft) N 0 0 min 0,000 mm 0 W/m 3,6 C 5,6 C 0,0 km/h (0 Bft) 100 %
28.03.2022 03:10 5,6 C 5,5 C 5,6 C 89 % 1024,6 hPa 0,0 l/m 0,0 km/h (0 Bft) N 360 0 min 0,000 mm 0 W/m 3,9 C 5,6 C 1,6 km/h (1 Bft) 100 %
28.03.2022 03:20 5,6 C 5,6 C 5,6 C 89 % 1024,5 hPa 0,0 l/m 0,0 km/h (0 Bft) N 0 0 min 0,000 mm 0 W/m 3,9 C 5,6 C 0,0 km/h (0 Bft) 100 %
28.03.2022 03:30 5,7 C 5,6 C 5,8 C 89 % 1024,6 hPa 0,0 l/m 0,0 km/h (0 Bft) N 0 0 min 0,000 mm 0 W/m 4,0 C 5,7 C 0,0 km/h (0 Bft) 100 %
28.03.2022 03:40 5,6 C 5,6 C 5,8 C 88 % 1024,6 hPa 0,0 l/m 0,0 km/h (0 Bft) N 0 0 min 0,000 mm 0 W/m 3,8 C 5,6 C 0,0 km/h (0 Bft) 100 %
28.03.2022 03:50 5,4 C 5,3 C 5,6 C 88 % 1024,4 hPa 0,0 l/m 0,0 km/h (0 Bft) N 0 0 min 0,000 mm 0 W/m 3,6 C 5,4 C 0,0 km/h (0 Bft) 90 %
28.03.2022 04:00 5,3 C 5,3 C 5,3 C 89 % 1024,3 hPa 0,0 l/m 0,0 km/h (0 Bft) N 0 0 min 0,000 mm 0 W/m 3,6 C 5,3 C 0,0 km/h (0 Bft) 99 %
28.03.2022 04:10 5,1 C 5,1 C 5,3 C 88 % 1024,3 hPa 0,0 l/m 0,0 km/h (0 Bft) N 0 0 min 0,000 mm 0 W/m 3,3 C 5,1 C 0,0 km/h (0 Bft) 100 %
28.03.2022 04:20 4,9 C 4,9 C 5,0 C 89 % 1024,1 hPa 0,0 l/m 0,0 km/h (0 Bft) N 0 0 min 0,000 mm 0 W/m 3,2 C 4,9 C 0,0 km/h (0 Bft) 100 %
28.03.2022 04:30 4,6 C 4,6 C 4,9 C 89 % 1024,1 hPa 0,0 l/m 0,0 km/h (0 Bft) N 0 0 min 0,000 mm 0 W/m 2,9 C 4,6 C 0,0 km/h (0 Bft) 100 %
28.03.2022 04:40 4,5 C 4,5 C 4,6 C 90 % 1024,1 hPa 0,0 l/m 0,0 km/h (0 Bft) N 0 0 min 0,000 mm 0 W/m 3,0 C 4,5 C 0,0 km/h (0 Bft) 100 %
28.03.2022 04:50 4,6 C 4,5 C 4,6 C 90 % 1024,1 hPa 0,0 l/m 0,0 km/h (0 Bft) N 0 0 min 0,000 mm 0 W/m 3,1 C 4,6 C 0,0 km/h (0 Bft) 100 %
28.03.2022 05:00 4,7 C 4,6 C 4,7 C 90 % 1024,0 hPa 0,0 l/m 0,0 km/h (0 Bft) N 0 0 min 0,000 mm 0 W/m 3,2 C 4,7 C 0,0 km/h (0 Bft) 100 %
28.03.2022 05:10 4,7 C 4,7 C 4,7 C 90 % 1023,9 hPa 0,0 l/m 0,0 km/h (0 Bft) N 0 0 min 0,000 mm 0 W/m 3,2 C 4,7 C 0,0 km/h (0 Bft) 97 %
28.03.2022 05:20 4,6 C 4,6 C 4,7 C 90 % 1023,8 hPa 0,0 l/m 0,0 km/h (0 Bft) N 0 0 min 0,000 mm 0 W/m 3,1 C 4,6 C 0,0 km/h (0 Bft) 98 %
28.03.2022 05:30 4,5 C 4,5 C 4,5 C 90 % 1023,8 hPa 0,0 l/m 0,0 km/h (0 Bft) N 0 0 min 0,000 mm 0 W/m 3,0 C 4,5 C 0,0 km/h (0 Bft) 97 %
28.03.2022 05:40 4,2 C 4,2 C 4,4 C 90 % 1023,7 hPa 0,0 l/m 0,0 km/h (0 Bft) N 0 0 min 0,000 mm 0 W/m 2,7 C 4,2 C 0,0 km/h (0 Bft) 89 %
28.03.2022 05:50 4,0 C 4,0 C 4,2 C 90 % 1023,7 hPa 0,0 l/m 0,0 km/h (0 Bft) N 0 0 min 0,000 mm 0 W/m 2,5 C 4,0 C 0,0 km/h (0 Bft) 98 %
28.03.2022 06:00 3,8 C 3,8 C 4,0 C 90 % 1023,7 hPa 0,0 l/m 0,0 km/h (0 Bft) N 0 0 min 0,000 mm 0 W/m 2,3 C 3,8 C 0,0 km/h (0 Bft) 97 %
28.03.2022 06:10 3,9 C 3,8 C 3,9 C 91 % 1023,6 hPa 0,0 l/m 0,0 km/h (0 Bft) N 0 0 min 0,000 mm 0 W/m 2,6 C 3,9 C 0,0 km/h (0 Bft) 98 %
28.03.2022 06:20 3,8 C 3,8 C 3,9 C 91 % 1023,6 hPa 0,0 l/m 0,0 km/h (0 Bft) N 0 0 min 0,000 mm 0 W/m 2,5 C 3,8 C 0,0 km/h (0 Bft) 97 %
28.03.2022 06:30 3,6 C 3,6 C 3,8 C 91 % 1023,5 hPa 0,0 l/m 0,0 km/h (0 Bft) N 0 0 min 0,000 mm 0 W/m 2,3 C 3,6 C 0,0 km/h (0 Bft) 97 %
28.03.2022 06:40 3,3 C 3,3 C 3,6 C 91 % 1023,5 hPa 0,0 l/m 0,0 km/h (0 Bft) N 0 0 min 0,000 mm 0 W/m 2,0 C 3,3 C 0,0 km/h (0 Bft) 98 %
28.03.2022 06:50 3,1 C 3,1 C 3,3 C 91 % 1023,6 hPa 0,0 l/m 0,0 km/h (0 Bft) N 0 0 min 0,000 mm 0 W/m 1,8 C 3,1 C 0,0 km/h (0 Bft) 98 %
28.03.2022 07:00 3,0 C 3,0 C 3,1 C 91 % 1023,5 hPa 0,0 l/m 0,0 km/h (0 Bft) N 0 0 min 0,000 mm 0 W/m 1,7 C 3,0 C 0,0 km/h (0 Bft) 98 %
28.03.2022 07:10 2,9 C 2,9 C 3,0 C 91 % 1023,5 hPa 0,0 l/m 0,0 km/h (0 Bft) N 0 0 min 0,000 mm 0 W/m 1,6 C 2,9 C 0,0 km/h (0 Bft) 96 %
28.03.2022 07:20 3,0 C 2,9 C 3,1 C 91 % 1023,5 hPa 0,0 l/m 0,0 km/h (0 Bft) N 0 0 min 0,000 mm 9 W/m 1,7 C 3,0 C 0,0 km/h (0 Bft) 99 %
28.03.2022 07:30 2,9 C 2,9 C 3,0 C 91 % 1023,5 hPa 0,0 l/m 0,0 km/h (0 Bft) N 0 0 min 0,000 mm 14 W/m 1,6 C 2,9 C 0,0 km/h (0 Bft) 87 %
28.03.2022 07:40 2,8 C 2,8 C 2,9 C 91 % 1023,6 hPa 0,0 l/m 0,0 km/h (0 Bft) N 0 0 min 0,000 mm 19 W/m 1,5 C 2,8 C 0,0 km/h (0 Bft) 100 %
28.03.2022 07:50 2,7 C 2,7 C 2,8 C 91 % 1023,5 hPa 0,0 l/m 0,0 km/h (0 Bft) N 0 0 min 0,000 mm 25 W/m 1,4 C 2,7 C 0,0 km/h (0 Bft) 100 %
28.03.2022 08:00 2,6 C 2,6 C 2,7 C 91 % 1023,5 hPa 0,0 l/m 0,0 km/h (0 Bft) N 0 0 min 0,000 mm 30 W/m 1,3 C 2,6 C 0,0 km/h (0 Bft) 100 %
28.03.2022 08:10 2,6 C 2,6 C 2,6 C 91 % 1023,6 hPa 0,0 l/m 0,0 km/h (0 Bft) N 0 0 min 0,000 mm 35 W/m 1,3 C 2,6 C 0,0 km/h (0 Bft) 100 %
28.03.2022 08:20 2,7 C 2,6 C 2,7 C 91 % 1023,6 hPa 0,0 l/m 0,0 km/h (0 Bft) N 0 0 min 0,000 mm 47 W/m 1,4 C 2,7 C 0,0 km/h (0 Bft) 100 %
28.03.2022 08:30 2,9 C 2,7 C 2,9 C 91 % 1023,5 hPa 0,0 l/m 0,0 km/h (0 Bft) N 0 0 min 0,000 mm 51 W/m 1,6 C 2,9 C 0,0 km/h (0 Bft) 100 %
28.03.2022 08:40 3,3 C 2,9 C 3,3 C 91 % 1023,5 hPa 0,0 l/m 0,0 km/h (0 Bft) N 0 10 min 0,000 mm 169 W/m 2,0 C 3,3 C 0,0 km/h (0 Bft) 99 %
28.03.2022 08:50 4,1 C 3,3 C 4,1 C 90 % 1023,6 hPa 0,0 l/m 0,0 km/h (0 Bft) N 0 10 min 0,000 mm 193 W/m 2,6 C 4,1 C 0,0 km/h (0 Bft) 100 %
28.03.2022 09:00 5,2 C 4,1 C 5,2 C 91 % 1023,6 hPa 0,0 l/m 0,0 km/h (0 Bft) N 0 10 min 0,025 mm 220 W/m 3,9 C 5,2 C 0,0 km/h (0 Bft) 100 %
28.03.2022 09:10 6,3 C 5,3 C 6,3 C 91 % 1023,6 hPa 0,0 l/m 0,0 km/h (0 Bft) N 0 10 min 0,000 mm 246 W/m 4,9 C 6,3 C 0,0 km/h (0 Bft) 100 %
28.03.2022 09:20 7,2 C 6,3 C 7,2 C 90 % 1023,5 hPa 0,0 l/m 0,0 km/h (0 Bft) N 0 10 min 0,000 mm 278 W/m 5,7 C 7,2 C 0,0 km/h (0 Bft) 100 %
28.03.2022 09:30 7,5 C 7,2 C 7,5 C 89 % 1023,3 hPa 0,0 l/m 0,0 km/h (0 Bft) N 0 10 min 0,000 mm 301 W/m 5,8 C 7,5 C 0,0 km/h (0 Bft) 91 %
28.03.2022 09:40 8,1 C 7,5 C 8,1 C 88 % 1023,3 hPa 0,0 l/m 0,0 km/h (0 Bft) N 360 10 min 0,000 mm 320 W/m 6,2 C 8,1 C 1,6 km/h (1 Bft) 100 %
28.03.2022 09:50 8,5 C 8,1 C 8,5 C 85 % 1023,2 hPa 0,0 l/m 0,0 km/h (0 Bft) N 0 10 min 0,000 mm 345 W/m 6,1 C 8,5 C 0,0 km/h (0 Bft) 100 %
28.03.2022 10:00 8,9 C 8,5 C 8,9 C 83 % 1023,2 hPa 0,0 l/m 0,0 km/h (0 Bft) SW 225 10 min 0,127 mm 367 W/m 6,2 C 8,9 C 6,4 km/h (2 Bft) 100 %
28.03.2022 10:10 9,5 C 8,9 C 9,5 C 81 % 1023,1 hPa 0,0 l/m 0,0 km/h (0 Bft) S-SW 202 10 min 0,000 mm 396 W/m 6,4 C 9,5 C 4,8 km/h (1 Bft) 100 %
28.03.2022 10:20 10,1 C 9,6 C 10,1 C 78 % 1023,0 hPa 0,0 l/m 0,0 km/h (0 Bft) S-SW 202 10 min 0,000 mm 417 W/m 6,4 C 10,1 C 1,6 km/h (1 Bft) 100 %
28.03.2022 10:30 10,7 C 10,1 C 10,7 C 74 % 1023,0 hPa 0,0 l/m 0,0 km/h (0 Bft) S-SW 202 10 min 0,000 mm 438 W/m 6,3 C 10,7 C 6,4 km/h (2 Bft) 99 %
28.03.2022 10:40 11,1 C 10,7 C 11,1 C 71 % 1022,9 hPa 0,0 l/m 1,6 km/h (1 Bft) S-SW 202 10 min 0,000 mm 461 W/m 6,0 C 11,1 C 9,7 km/h (2 Bft) 100 %
28.03.2022 10:50 11,6 C 11,1 C 11,6 C 67 % 1022,9 hPa 0,0 l/m 1,6 km/h (1 Bft) S-SW 202 10 min 0,000 mm 482 W/m 5,7 C 11,6 C 8,0 km/h (2 Bft) 100 %
28.03.2022 11:00 12,1 C 11,6 C 12,1 C 64 % 1022,8 hPa 0,0 l/m 1,6 km/h (1 Bft) S-SW 202 10 min 0,203 mm 499 W/m 5,5 C 12,1 C 8,0 km/h (2 Bft) 100 %
28.03.2022 11:10 12,4 C 12,1 C 12,4 C 63 % 1022,8 hPa 0,0 l/m 1,6 km/h (1 Bft) S-SW 202 10 min 0,000 mm 517 W/m 5,6 C 12,4 C 14,5 km/h (3 Bft) 100 %
28.03.2022 11:20 12,8 C 12,4 C 12,8 C 63 % 1022,7 hPa 0,0 l/m 1,6 km/h (1 Bft) S-SO 157 10 min 0,000 mm 533 W/m 5,9 C 12,8 C 11,3 km/h (2 Bft) 100 %
28.03.2022 11:30 13,1 C 12,8 C 13,1 C 63 % 1022,6 hPa 0,0 l/m 1,6 km/h (1 Bft) S 180 10 min 0,000 mm 547 W/m 6,2 C 13,1 C 9,7 km/h (2 Bft) 100 %
28.03.2022 11:40 13,3 C 13,1 C 13,3 C 62 % 1022,3 hPa 0,0 l/m 1,6 km/h (1 Bft) S-SO 157 10 min 0,000 mm 559 W/m 6,2 C 13,3 C 11,3 km/h (2 Bft) 100 %
28.03.2022 11:50 13,5 C 13,3 C 13,5 C 61 % 1022,2 hPa 0,0 l/m 1,6 km/h (1 Bft) S-SO 157 10 min 0,000 mm 573 W/m 6,1 C 13,5 C 9,7 km/h (2 Bft) 100 %
28.03.2022 12:00 14,1 C 13,5 C 14,1 C 61 % 1022,2 hPa 0,0 l/m 3,2 km/h (1 Bft) S-SO 157 10 min 0,279 mm 582 W/m 6,7 C 14,1 C 14,5 km/h (3 Bft) 100 %
28.03.2022 12:10 14,8 C 14,2 C 14,8 C 58 % 1022,0 hPa 0,0 l/m 1,6 km/h (1 Bft) S-SW 202 10 min 0,000 mm 591 W/m 6,6 C 14,8 C 14,5 km/h (3 Bft) 100 %
28.03.2022 12:20 15,1 C 14,8 C 15,1 C 56 % 1021,9 hPa 0,0 l/m 1,6 km/h (1 Bft) SW 225 10 min 0,000 mm 598 W/m 6,4 C 15,1 C 14,5 km/h (3 Bft) 100 %
28.03.2022 12:30 15,5 C 15,1 C 15,5 C 54 % 1021,8 hPa 0,0 l/m 3,2 km/h (1 Bft) S-SW 202 10 min 0,000 mm 606 W/m 6,2 C 15,5 C 22,5 km/h (4 Bft) 100 %
28.03.2022 12:40 15,9 C 15,1 C 16,0 C 54 % 1021,7 hPa 0,0 l/m 1,7 km/h (1 Bft) S-SW 201 10 min 0,000 mm 610 W/m 6,6 C 15,9 C 6,4 km/h (2 Bft) 98 %
28.03.2022 12:50 16,3 C 15,9 C 16,3 C 51 % 1021,5 hPa 0,0 l/m 5,3 km/h (1 Bft) SW 216 10 min 0,000 mm 617 W/m 6,1 C 16,3 C 19,3 km/h (3 Bft) 98 %
28.03.2022 13:00 16,8 C 16,3 C 16,8 C 51 % 1021,3 hPa 0,0 l/m 6,6 km/h (2 Bft) SW 220 10 min 0,306 mm 621 W/m 6,6 C 16,7 C 16,1 km/h (3 Bft) 98 %
28.03.2022 13:10 17,3 C 16,8 C 17,3 C 51 % 1021,1 hPa 0,0 l/m 3,9 km/h (1 Bft) S-SW 211 10 min 0,000 mm 628 W/m 7,1 C 17,3 C 11,3 km/h (2 Bft) 97 %
28.03.2022 13:20 17,6 C 17,3 C 17,6 C 47 % 1020,9 hPa 0,0 l/m 5,1 km/h (1 Bft) W-SW 242 10 min 0,000 mm 629 W/m 6,2 C 17,6 C 17,7 km/h (3 Bft) 97 %
28.03.2022 13:30 18,1 C 17,6 C 18,1 C 45 % 1020,7 hPa 0,0 l/m 2,7 km/h (1 Bft) SW 227 10 min 0,000 mm 631 W/m 6,0 C 18,1 C 9,7 km/h (2 Bft) 98 %
28.03.2022 13:40 18,6 C 18,1 C 18,6 C 45 % 1020,6 hPa 0,0 l/m 6,8 km/h (2 Bft) W-SW 255 10 min 0,000 mm 631 W/m 6,4 C 18,4 C 17,7 km/h (3 Bft) 98 %
28.03.2022 13:50 18,7 C 18,6 C 18,8 C 44 % 1020,5 hPa 0,0 l/m 6,2 km/h (2 Bft) SW 225 10 min 0,000 mm 626 W/m 6,2 C 18,7 C 14,5 km/h (3 Bft) 98 %
28.03.2022 14:00 18,9 C 18,7 C 18,9 C 41 % 1020,5 hPa 0,0 l/m 9,6 km/h (2 Bft) S-SW 204 10 min 0,381 mm 621 W/m 5,4 C 17,6 C 20,9 km/h (4 Bft) 97 %
28.03.2022 14:10 19,1 C 18,9 C 19,1 C 42 % 1020,1 hPa 0,0 l/m 8,2 km/h (2 Bft) S-SW 199 10 min 0,000 mm 617 W/m 5,9 C 18,3 C 17,7 km/h (3 Bft) 98 %
28.03.2022 14:20 19,4 C 19,1 C 19,4 C 41 % 1020,0 hPa 0,0 l/m 8,0 km/h (2 Bft) W 259 10 min 0,000 mm 612 W/m 5,8 C 18,7 C 19,3 km/h (3 Bft) 97 %
28.03.2022 14:30 19,7 C 19,4 C 19,7 C 41 % 1019,7 hPa 0,0 l/m 7,0 km/h (2 Bft) W-NW 288 10 min 0,000 mm 603 W/m 6,1 C 19,5 C 17,7 km/h (3 Bft) 97 %
28.03.2022 14:40 20,1 C 19,7 C 20,1 C 40 % 1019,6 hPa 0,0 l/m 3,7 km/h (1 Bft) SW 232 10 min 0,000 mm 594 W/m 6,1 C 20,1 C 9,7 km/h (2 Bft) 98 %
28.03.2022 14:50 19,9 C 19,9 C 20,1 C 37 % 1019,5 hPa 0,0 l/m 8,3 km/h (2 Bft) W-SW 250 10 min 0,000 mm 589 W/m 4,8 C 19,1 C 20,9 km/h (4 Bft) 97 %
28.03.2022 15:00 20,1 C 19,9 C 20,1 C 38 % 1019,1 hPa 0,0 l/m 5,4 km/h (1 Bft) W 259 10 min 0,407 mm 578 W/m 5,3 C 20,1 C 16,1 km/h (3 Bft) 98 %
28.03.2022 15:10 20,5 C 20,1 C 20,5 C 37 % 1019,1 hPa 0,0 l/m 6,7 km/h (2 Bft) SW 219 10 min 0,000 mm 564 W/m 5,3 C 20,4 C 17,7 km/h (3 Bft) 97 %
28.03.2022 15:20 20,7 C 20,5 C 20,7 C 33 % 1018,8 hPa 0,0 l/m 6,0 km/h (2 Bft) W-NW 288 10 min 0,000 mm 559 W/m 3,9 C 20,7 C 16,1 km/h (3 Bft) 97 %
28.03.2022 15:30 21,0 C 20,7 C 21,0 C 34 % 1018,7 hPa 0,0 l/m 8,2 km/h (2 Bft) NW 306 10 min 0,000 mm 541 W/m 4,5 C 20,3 C 16,1 km/h (3 Bft) 98 %
28.03.2022 15:40 20,9 C 20,9 C 21,1 C 33 % 1018,6 hPa 0,0 l/m 5,7 km/h (1 Bft) SW 217 10 min 0,000 mm 534 W/m 4,0 C 20,9 C 20,9 km/h (4 Bft) 97 %
28.03.2022 15:50 20,8 C 20,8 C 20,9 C 34 % 1018,4 hPa 0,0 l/m 6,0 km/h (2 Bft) NW 304 10 min 0,000 mm 517 W/m 4,4 C 20,8 C 19,3 km/h (3 Bft) 97 %
28.03.2022 16:00 20,7 C 20,7 C 20,9 C 32 % 1018,3 hPa 0,0 l/m 7,1 km/h (2 Bft) W 277 10 min 0,381 mm 494 W/m 3,4 C 20,4 C 20,9 km/h (4 Bft) 97 %
28.03.2022 16:10 20,9 C 20,7 C 20,9 C 32 % 1018,2 hPa 0,0 l/m 7,2 km/h (2 Bft) W-NW 299 10 min 0,000 mm 468 W/m 3,6 C 20,6 C 22,5 km/h (4 Bft) 98 %
28.03.2022 16:20 20,7 C 20,7 C 20,9 C 32 % 1018,1 hPa 0,0 l/m 11,0 km/h (2 Bft) W-SW 258 10 min 0,000 mm 450 W/m 3,4 C 19,1 C 22,5 km/h (4 Bft) 97 %
28.03.2022 16:30 20,8 C 20,7 C 20,8 C 34 % 1017,9 hPa 0,0 l/m 6,7 km/h (2 Bft) W-SW 255 10 min 0,000 mm 424 W/m 4,4 C 20,7 C 16,1 km/h (3 Bft) 98 %
28.03.2022 16:40 20,9 C 20,8 C 20,9 C 34 % 1017,9 hPa 0,0 l/m 7,7 km/h (2 Bft) W 261 10 min 0,000 mm 403 W/m 4,4 C 20,4 C 20,9 km/h (4 Bft) 97 %
28.03.2022 16:50 21,2 C 20,9 C 21,2 C 33 % 1017,7 hPa 0,0 l/m 5,0 km/h (1 Bft) W 259 10 min 0,000 mm 339 W/m 4,3 C 21,2 C 9,7 km/h (2 Bft) 97 %
28.03.2022 17:00 20,8 C 20,8 C 21,2 C 36 % 1017,6 hPa 0,0 l/m 7,2 km/h (2 Bft) SW 227 10 min 0,330 mm 241 W/m 5,2 C 20,5 C 19,3 km/h (3 Bft) 97 %
28.03.2022 17:10 20,3 C 20,3 C 20,8 C 36 % 1017,4 hPa 0,0 l/m 4,6 km/h (1 Bft) W-SW 252 10 min 0,000 mm 378 W/m 4,7 C 20,3 C 16,1 km/h (3 Bft) 97 %
28.03.2022 17:20 20,0 C 20,0 C 20,3 C 38 % 1017,3 hPa 0,0 l/m 1,7 km/h (1 Bft) SW 234 10 min 0,000 mm 176 W/m 5,2 C 20,0 C 8,0 km/h (2 Bft) 97 %
28.03.2022 17:30 19,5 C 19,5 C 20,0 C 39 % 1017,2 hPa 0,0 l/m 2,5 km/h (1 Bft) W-SW 258 0 min 0,000 mm 144 W/m 5,2 C 19,5 C 11,3 km/h (2 Bft) 97 %
28.03.2022 17:40 19,2 C 19,2 C 19,5 C 40 % 1017,1 hPa 0,0 l/m 3,1 km/h (1 Bft) SW 233 10 min 0,000 mm 176 W/m 5,3 C 19,2 C 12,9 km/h (3 Bft) 97 %
28.03.2022 17:50 19,1 C 19,1 C 19,2 C 40 % 1017,0 hPa 0,0 l/m 3,0 km/h (1 Bft) W-SW 238 10 min 0,000 mm 186 W/m 5,2 C 19,1 C 17,7 km/h (3 Bft) 98 %
28.03.2022 18:00 19,1 C 19,1 C 19,1 C 41 % 1017,0 hPa 0,0 l/m 2,6 km/h (1 Bft) W 261 10 min 0,152 mm 197 W/m 5,5 C 19,1 C 16,1 km/h (3 Bft) 97 %
28.03.2022 18:10 19,2 C 19,1 C 19,2 C 41 % 1017,0 hPa 0,0 l/m 3,1 km/h (1 Bft) W-SW 258 10 min 0,000 mm 218 W/m 5,6 C 19,2 C 9,7 km/h (2 Bft) 97 %
28.03.2022 18:20 19,2 C 19,2 C 19,3 C 40 % 1016,9 hPa 0,0 l/m 1,4 km/h (1 Bft) W-SW 248 0 min 0,000 mm 118 W/m 5,3 C 19,2 C 11,3 km/h (2 Bft) 97 %
28.03.2022 18:30 19,0 C 19,0 C 19,2 C 41 % 1016,8 hPa 0,0 l/m 2,4 km/h (1 Bft) W 278 0 min 0,000 mm 86 W/m 5,4 C 19,0 C 9,7 km/h (2 Bft) 98 %
28.03.2022 18:40 18,8 C 18,8 C 19,0 C 42 % 1016,7 hPa 0,0 l/m 1,6 km/h (1 Bft) W-NW 291 0 min 0,000 mm 65 W/m 5,6 C 18,8 C 9,7 km/h (2 Bft) 97 %
28.03.2022 18:50 18,6 C 18,6 C 18,8 C 42 % 1016,7 hPa 0,0 l/m 0,9 km/h (0 Bft) W 273 0 min 0,000 mm 46 W/m 5,4 C 18,6 C 6,4 km/h (2 Bft) 97 %
28.03.2022 19:00 18,3 C 18,3 C 18,6 C 42 % 1016,6 hPa 0,0 l/m 0,8 km/h (0 Bft) W 266 0 min 0,076 mm 35 W/m 5,2 C 18,3 C 6,4 km/h (2 Bft) 98 %
28.03.2022 19:10 18,1 C 18,1 C 18,3 C 43 % 1016,4 hPa 0,0 l/m 0,0 km/h (0 Bft) W 266 0 min 0,000 mm 25 W/m 5,3 C 18,1 C 0,0 km/h (0 Bft) 97 %
28.03.2022 19:20 17,6 C 17,6 C 18,1 C 44 % 1016,2 hPa 0,0 l/m 0,0 km/h (0 Bft) W 266 0 min 0,000 mm 16 W/m 5,2 C 17,6 C 0,0 km/h (0 Bft) 97 %
28.03.2022 19:30 17,1 C 17,1 C 17,6 C 45 % 1016,2 hPa 0,0 l/m 0,0 km/h (0 Bft) W 266 0 min 0,000 mm 9 W/m 5,1 C 17,1 C 0,0 km/h (0 Bft) 97 %
28.03.2022 19:40 16,6 C 16,6 C 17,1 C 46 % 1016,1 hPa 0,0 l/m 0,0 km/h (0 Bft) W 266 0 min 0,000 mm 5 W/m 4,9 C 16,6 C 0,0 km/h (0 Bft) 98 %
28.03.2022 19:50 16,1 C 16,1 C 16,6 C 47 % 1016,1 hPa 0,0 l/m 0,0 km/h (0 Bft) W 266 0 min 0,000 mm 0 W/m 4,8 C 16,1 C 0,0 km/h (0 Bft) 97 %
28.03.2022 20:00 15,7 C 15,7 C 16,1 C 47 % 1016,1 hPa 0,0 l/m 0,0 km/h (0 Bft) W 266 0 min 0,026 mm 0 W/m 4,4 C 15,7 C 0,0 km/h (0 Bft) 97 %
28.03.2022 20:10 15,3 C 15,3 C 15,7 C 48 % 1015,9 hPa 0,0 l/m 0,0 km/h (0 Bft) W 266 0 min 0,000 mm 0 W/m 4,4 C 15,3 C 0,0 km/h (0 Bft) 98 %
28.03.2022 20:20 15,1 C 15,1 C 15,3 C 49 % 1016,0 hPa 0,0 l/m 0,0 km/h (0 Bft) W 266 0 min 0,000 mm 0 W/m 4,5 C 15,1 C 0,0 km/h (0 Bft) 97 %
28.03.2022 20:30 14,7 C 14,7 C 15,1 C 49 % 1015,8 hPa 0,0 l/m 0,0 km/h (0 Bft) W 266 0 min 0,000 mm 0 W/m 4,1 C 14,7 C 0,0 km/h (0 Bft) 98 %
28.03.2022 20:40 14,3 C 14,3 C 14,7 C 51 % 1015,9 hPa 0,0 l/m 0,0 km/h (0 Bft) W 266 0 min 0,000 mm 0 W/m 4,3 C 14,3 C 0,0 km/h (0 Bft) 97 %
28.03.2022 20:50 13,8 C 13,8 C 14,3 C 52 % 1015,9 hPa 0,0 l/m 0,0 km/h (0 Bft) W 266 0 min 0,000 mm 0 W/m 4,1 C 13,8 C 0,0 km/h (0 Bft) 98 %
28.03.2022 21:00 13,4 C 13,4 C 13,8 C 53 % 1015,9 hPa 0,0 l/m 0,0 km/h (0 Bft) W 266 0 min 0,051 mm 0 W/m 4,0 C 13,4 C 0,0 km/h (0 Bft) 98 %
28.03.2022 21:10 13,0 C 13,0 C 13,4 C 54 % 1015,9 hPa 0,0 l/m 0,0 km/h (0 Bft) N 0 0 min 0,000 mm 0 W/m 3,9 C 13,0 C 0,0 km/h (0 Bft) 100 %
28.03.2022 21:20 12,6 C 12,6 C 13,0 C 55 % 1015,8 hPa 0,0 l/m 0,0 km/h (0 Bft) N 0 0 min 0,000 mm 0 W/m 3,8 C 12,6 C 0,0 km/h (0 Bft) 100 %
28.03.2022 21:30 12,3 C 12,3 C 12,6 C 56 % 1015,6 hPa 0,0 l/m 0,0 km/h (0 Bft) N 0 0 min 0,000 mm 0 W/m 3,8 C 12,3 C 0,0 km/h (0 Bft) 100 %
28.03.2022 21:40 11,7 C 11,7 C 12,3 C 57 % 1015,6 hPa 0,0 l/m 0,0 km/h (0 Bft) N 0 0 min 0,000 mm 0 W/m 3,5 C 11,7 C 0,0 km/h (0 Bft) 100 %
28.03.2022 21:50 11,3 C 11,3 C 11,7 C 59 % 1015,5 hPa 0,0 l/m 0,0 km/h (0 Bft) N 0 0 min 0,000 mm 0 W/m 3,6 C 11,3 C 0,0 km/h (0 Bft) 99 %
28.03.2022 22:00 11,1 C 11,1 C 11,3 C 60 % 1015,5 hPa 0,0 l/m 0,0 km/h (0 Bft) N 0 0 min 0,025 mm 0 W/m 3,6 C 11,1 C 0,0 km/h (0 Bft) 100 %
28.03.2022 22:10 10,8 C 10,8 C 11,1 C 60 % 1015,5 hPa 0,0 l/m 0,0 km/h (0 Bft) N 0 0 min 0,000 mm 0 W/m 3,4 C 10,8 C 0,0 km/h (0 Bft) 100 %
28.03.2022 22:20 10,4 C 10,4 C 10,8 C 62 % 1015,5 hPa 0,0 l/m 0,0 km/h (0 Bft) N 0 0 min 0,000 mm 0 W/m 3,4 C 10,4 C 0,0 km/h (0 Bft) 99 %
28.03.2022 22:30 10,1 C 10,1 C 10,4 C 63 % 1015,4 hPa 0,0 l/m 0,0 km/h (0 Bft) N 0 0 min 0,000 mm 0 W/m 3,4 C 10,1 C 0,0 km/h (0 Bft) 100 %
28.03.2022 22:40 9,7 C 9,7 C 10,1 C 65 % 1015,3 hPa 0,0 l/m 0,0 km/h (0 Bft) N 0 0 min 0,000 mm 0 W/m 3,4 C 9,7 C 0,0 km/h (0 Bft) 100 %
28.03.2022 22:50 9,3 C 9,3 C 9,7 C 66 % 1015,2 hPa 0,0 l/m 0,0 km/h (0 Bft) N 0 0 min 0,000 mm 0 W/m 3,3 C 9,3 C 0,0 km/h (0 Bft) 100 %
28.03.2022 23:00 9,0 C 9,0 C 9,3 C 67 % 1015,0 hPa 0,0 l/m 0,0 km/h (0 Bft) N 0 0 min 0,025 mm 0 W/m 3,2 C 9,0 C 0,0 km/h (0 Bft) 99 %
28.03.2022 23:10 8,9 C 8,9 C 9,0 C 67 % 1015,1 hPa 0,0 l/m 0,0 km/h (0 Bft) N 0 0 min 0,000 mm 0 W/m 3,1 C 8,9 C 0,0 km/h (0 Bft) 100 %
28.03.2022 23:20 8,8 C 8,8 C 8,9 C 67 % 1015,0 hPa 0,0 l/m 0,0 km/h (0 Bft) N 0 0 min 0,000 mm 0 W/m 3,0 C 8,8 C 0,0 km/h (0 Bft) 100 %
28.03.2022 23:30 8,6 C 8,6 C 8,8 C 68 % 1014,8 hPa 0,0 l/m 0,0 km/h (0 Bft) N 0 0 min 0,000 mm 0 W/m 3,0 C 8,6 C 0,0 km/h (0 Bft) 99 %
28.03.2022 23:40 8,4 C 8,4 C 8,6 C 69 % 1014,8 hPa 0,0 l/m 0,0 km/h (0 Bft) N 0 0 min 0,000 mm 0 W/m 3,0 C 8,4 C 0,0 km/h (0 Bft) 100 %
28.03.2022 23:50 8,2 C 8,2 C 8,4 C 70 % 1014,7 hPa 0,0 l/m 0,0 km/h (0 Bft) N 0 0 min 0,000 mm 0 W/m 3,1 C 8,2 C 0,0 km/h (0 Bft) 99 %
_ Min-Zeit 08:00 08:00 08:10 16:00 23:50 - 00:00 - - - - - 08:00 08:00 00:40 07:30
Minimum _ 2,6 C 2,6 C 2,6 C 32 % 1014,7 hPa - 0,0 km/h (0 Bft) - - - - - 1,3 C 2,6 C 0,0 km/h (0 Bft) 87 %
_ Max-Zeit 16:50 15:40 16:50 06:10 00:00 00:00 16:20 - - 08:40 15:00 13:30 13:10 16:50 12:30 00:00
Maximum _ 21,2 C 20,9 C 21,2 C 91 % 1025,8 hPa 0,0 l/m 11,0 km/h
W-SW (2 Bft)
- - 10 min 0,407 mm 631 W/m 7,1 C 21,2 C 22,5 km/h
S-SW (4 Bft)
100 %
Durchschnitt _ 11,3 C 11,2 C 11,5 C 66 % 1020,8 hPa #0,0 l/m 1,5 km/h (1 Bft) SW - #9:30 h #2,819 mm 361 W/m 4,3 C 11,3 C 5,4 km/h (1 Bft) 98 %
PRIVATE WETTERSTATION BILLIGHEIM-ALLFELD - www.neckar-odenwald-wetter.de - Holger Sonntag